Time;durP1;ratioP1;P1;durP2;ratioP2;P2;SDS_P1;SDS_P2;PMS_P1;PMS_P2;Temp;Humidity;BMP_temperature;BMP_pressure;BME280_temperature;BME280_humidity;BME280_pressure;Samples;Min_cycle;Max_cycle;Signal;HPM_P1;HPM_P2
2022/08/05 00:01:16;;;;;;;5.00;2.92;;;;;;;22.53;64.59;99752.31;4994268;28;20524;-62
2022/08/05 00:04:03;;;;;;;5.18;3.03;;;;;;;22.51;64.86;99757.66;4994685;28;20494;-62
2022/08/05 00:06:47;;;;;;;4.72;2.78;;;;;;;22.49;64.80;99748.94;4993882;28;20116;-61
2022/08/05 00:09:31;;;;;;;5.68;3.17;;;;;;;22.48;64.55;99757.78;4994363;28;20049;-60
2022/08/05 00:12:15;;;;;;;5.25;3.55;;;;;;;22.47;64.57;99766.63;4994566;28;20410;-61
2022/08/05 00:14:59;;;;;;;7.40;3.58;;;;;;;22.46;64.72;99774.59;4993842;28;20040;-62
2022/08/05 00:17:46;;;;;;;4.65;3.17;;;;;;;22.45;64.90;99765.81;4994275;28;20404;-62
2022/08/05 00:20:31;;;;;;;7.28;3.55;;;;;;;22.42;64.85;99758.00;4993702;28;20049;-62
2022/08/05 00:23:17;;;;;;;4.07;2.85;;;;;;;22.43;64.73;99756.22;4994328;28;20053;-62
2022/08/05 00:26:04;;;;;;;13.82;3.63;;;;;;;22.41;64.36;99748.31;4994179;28;20116;-62
2022/08/05 00:28:49;;;;;;;7.40;3.47;;;;;;;22.39;64.89;99750.16;4993130;28;20569;-62
2022/08/05 00:31:37;;;;;;;5.40;3.33;;;;;;;22.38;64.91;99753.72;4994466;28;20049;-62
2022/08/05 00:34:21;;;;;;;7.32;3.30;;;;;;;22.40;64.82;99754.53;4994186;28;20054;-62
2022/08/05 00:37:05;;;;;;;5.60;3.05;;;;;;;22.41;64.76;99753.59;4993962;28;20049;-60
2022/08/05 00:39:49;;;;;;;6.10;3.88;;;;;;;22.41;64.76;99752.75;4994241;28;20116;-60
2022/08/05 00:42:35;;;;;;;5.90;4.25;;;;;;;22.40;64.87;99762.44;4993417;28;20189;-61
2022/08/05 00:45:22;;;;;;;5.60;3.58;;;;;;;22.41;64.94;99779.16;4993599;28;20053;-60
2022/08/05 00:48:07;;;;;;;6.18;3.35;;;;;;;22.39;64.83;99770.44;4993985;28;20049;-63
2022/08/05 00:50:54;;;;;;;6.53;3.85;;;;;;;22.38;64.80;99744.97;4994041;28;20517;-60
2022/08/05 00:53:41;;;;;;;5.88;4.25;;;;;;;22.36;64.95;99768.75;4993211;28;20081;-60
2022/08/05 00:56:25;;;;;;;7.82;4.07;;;;;;;22.35;64.91;99796.06;4993411;28;20084;-61
2022/08/05 00:59:14;;;;;;;7.13;3.50;;;;;;;22.31;64.91;99826.16;4994001;28;20045;-61
2022/08/05 01:01:58;;;;;;;6.35;3.97;;;;;;;22.26;65.20;99863.28;4992879;28;20057;-61
2022/08/05 01:04:42;;;;;;;7.38;4.30;;;;;;;22.21;65.15;99903.00;4994159;28;20073;-62
2022/08/05 01:07:25;;;;;;;7.05;3.85;;;;;;;22.26;65.31;99918.69;4993834;28;20072;-61
2022/08/05 01:10:14;;;;;;;8.95;4.57;;;;;;;22.25;65.00;99924.91;4993745;28;20077;-63
2022/08/05 01:13:05;;;;;;;9.30;4.85;;;;;;;22.22;65.01;99927.63;4992806;28;20053;-62
2022/08/05 01:16:02;;;;;;;8.32;3.95;;;;;;;22.20;64.97;99935.59;4993836;28;20053;-63
2022/08/05 01:18:53;;;;;;;8.00;4.32;;;;;;;22.23;65.08;99941.69;4993501;28;20536;-62
2022/08/05 01:22:08;;;;;;;5.50;3.55;;;;;;;22.24;64.77;99943.41;4993051;28;20553;-61
2022/08/05 01:25:12;;;;;;;12.90;4.53;;;;;;;22.20;65.26;99934.75;4993079;28;20088;-60
2022/08/05 01:28:16;;;;;;;8.67;4.00;;;;;;;22.23;65.06;99904.72;4992885;28;20053;-61
2022/08/05 01:31:15;;;;;;;;;;;;;;;22.22;65.14;99901.25;4993232;28;20134;-61
2022/08/05 01:34:18;;;;;;;6.18;4.30;;;;;;;22.22;65.09;99880.13;4992994;28;19992;-61
2022/08/05 01:37:16;;;;;;;9.60;4.38;;;;;;;22.23;65.12;99854.59;4993709;28;20089;-62
2022/08/05 01:40:02;;;;;;;8.68;4.28;;;;;;;22.23;65.27;99828.19;4992912;28;20053;-61
2022/08/05 01:42:49;;;;;;;7.05;3.75;;;;;;;22.23;64.96;99809.72;4996197;28;20077;-63
2022/08/05 01:45:37;;;;;;;8.70;4.10;;;;;;;22.23;65.23;99799.16;4996461;28;20069;-61
2022/08/05 01:48:22;;;;;;;6.35;3.50;;;;;;;22.20;65.19;99764.03;4996418;28;20061;-60
2022/08/05 01:51:08;;;;;;;5.82;3.45;;;;;;;22.17;65.09;99758.91;4996384;28;20104;-61
2022/08/05 01:53:54;;;;;;;7.93;4.15;;;;;;;22.15;65.59;99744.03;4996355;28;20053;-61
2022/08/05 01:56:42;;;;;;;5.65;3.70;;;;;;;22.13;65.24;99733.53;4996265;28;20458;-61
2022/08/05 01:59:31;;;;;;;7.82;3.72;;;;;;;22.12;65.54;99755.56;4996228;28;20061;-62
2022/08/05 02:02:18;;;;;;;10.43;4.00;;;;;;;22.12;65.50;99774.03;4996807;28;20064;-61
2022/08/05 02:05:07;;;;;;;5.70;3.65;;;;;;;22.14;65.23;99766.03;4996146;28;20052;-61
2022/08/05 02:07:51;;;;;;;6.15;4.05;;;;;;;22.12;65.42;99747.63;4995991;28;20045;-60
2022/08/05 02:10:41;;;;;;;5.30;3.80;;;;;;;22.10;65.26;99759.19;4997240;28;20053;-61
2022/08/05 02:13:31;;;;;;;7.18;4.70;;;;;;;22.10;65.07;99778.50;4996081;28;20080;-61
2022/08/05 02:16:31;;;;;;;5.00;3.75;;;;;;;22.11;65.19;99803.13;4995678;28;20117;-61
2022/08/05 02:19:38;;;;;;;6.35;3.47;;;;;;;22.14;65.26;99821.47;4996522;28;20036;-61
2022/08/05 02:22:29;;;;;;;7.53;3.55;;;;;;;22.16;65.08;99827.56;4996292;28;20541;-62
2022/08/05 02:25:21;;;;;;;6.63;3.55;;;;;;;22.18;65.12;99828.34;4995316;28;20104;-62
2022/08/05 02:28:07;;;;;;;8.07;4.22;;;;;;;22.16;65.26;99852.19;4995591;28;20133;-62
2022/08/05 02:30:57;;;;;;;6.60;4.32;;;;;;;22.15;65.12;99861.00;4995669;28;20401;-61
2022/08/05 02:33:49;;;;;;;6.65;4.00;;;;;;;22.15;65.14;99868.03;4995596;28;20108;-61
2022/08/05 02:36:40;;;;;;;5.28;4.38;;;;;;;22.14;65.21;99877.75;4995590;28;20049;-61
2022/08/05 02:39:28;;;;;;;5.50;3.92;;;;;;;22.13;64.95;99878.66;4995222;28;20057;-63
2022/08/05 02:42:13;;;;;;;6.97;4.40;;;;;;;22.13;65.29;99876.03;4995270;28;20046;-62
2022/08/05 02:44:59;;;;;;;6.57;4.53;;;;;;;22.13;65.22;99872.50;4995408;28;20041;-61
2022/08/05 02:47:44;;;;;;;5.57;4.03;;;;;;;22.12;65.24;99853.19;4995266;28;20394;-60
2022/08/05 02:50:30;;;;;;;5.93;3.40;;;;;;;22.13;65.27;99844.34;4994848;28;20141;-60
2022/08/05 02:53:17;;;;;;;8.00;4.22;;;;;;;22.14;65.32;99824.09;4995965;28;20050;-60
2022/08/05 02:56:01;;;;;;;7.03;3.83;;;;;;;22.14;65.03;99822.34;4995241;28;20069;-60
2022/08/05 02:58:48;;;;;;;5.28;3.92;;;;;;;22.16;65.18;99827.56;4995124;28;20053;-60
2022/08/05 03:01:34;;;;;;;11.85;4.20;;;;;;;22.15;65.18;99839.03;4994511;28;20057;-60
2022/08/05 03:04:19;;;;;;;5.40;4.10;;;;;;;22.14;65.33;99824.09;4994965;28;20052;-60
2022/08/05 03:07:06;;;;;;;6.47;4.22;;;;;;;22.13;65.22;99786.31;4994987;28;20062;-60
2022/08/05 03:09:56;;;;;;;7.13;3.60;;;;;;;22.12;65.30;99776.66;4995504;28;20046;-62
2022/08/05 03:12:43;;;;;;;7.90;4.20;;;;;;;22.10;65.26;99802.25;4994793;28;20132;-62
2022/08/05 03:15:27;;;;;;;7.25;3.78;;;;;;;22.11;65.42;99803.13;4994613;28;20144;-62
2022/08/05 03:18:11;;;;;;;7.22;4.00;;;;;;;22.11;65.40;99779.38;4995415;28;20077;-61
2022/08/05 03:20:55;;;;;;;7.90;3.92;;;;;;;22.06;65.38;99790.06;4994530;28;20096;-60
2022/08/05 03:23:41;;;;;;;6.00;4.13;;;;;;;22.02;65.35;99799.88;4994396;28;20048;-60
2022/08/05 03:26:28;;;;;;;6.18;4.10;;;;;;;21.97;65.42;99807.09;4994476;28;20052;-61
2022/08/05 03:29:15;;;;;;;8.05;5.13;;;;;;;21.96;65.54;99794.81;4995259;28;20049;-60
2022/08/05 03:32:00;;;;;;;7.65;4.20;;;;;;;21.96;65.45;99786.88;4994491;28;20473;-61
2022/08/05 03:34:48;;;;;;;7.53;4.78;;;;;;;21.92;65.56;99777.38;4994336;28;20066;-60
2022/08/05 03:37:34;;;;;;;4.93;4.00;;;;;;;21.92;65.62;99769.47;4994393;28;20041;-60
2022/08/05 03:40:22;;;;;;;5.22;4.00;;;;;;;21.92;65.57;99756.28;4994215;28;20185;-61
2022/08/05 03:43:06;;;;;;;6.28;4.78;;;;;;;21.93;65.65;99742.19;4994327;28;20045;-59
2022/08/05 03:45:53;;;;;;;7.35;4.55;;;;;;;21.94;65.61;99736.00;4995109;28;20053;-62
2022/08/05 03:48:37;;;;;;;8.02;4.78;;;;;;;21.94;65.54;99729.84;4993981;28;20409;-62
2022/08/05 03:51:37;;;;;;;10.80;5.00;;;;;;;21.95;65.38;99740.34;4995145;28;20045;-62
2022/08/05 03:54:34;;;;;;;7.05;4.40;;;;;;;21.93;65.67;99750.09;4994861;28;20061;-62
2022/08/05 03:57:24;;;;;;;9.68;4.70;;;;;;;21.93;65.68;99738.66;4994063;28;20053;-62
2022/08/05 04:00:12;;;;;;;7.43;4.50;;;;;;;21.93;65.73;99750.09;4994150;28;20053;-62
2022/08/05 04:03:02;;;;;;;8.00;4.43;;;;;;;21.94;65.67;99765.00;4993382;28;20129;-62
2022/08/05 04:05:50;;;;;;;6.55;4.45;;;;;;;21.94;65.70;99767.66;4993760;28;20406;-62
2022/08/05 04:08:35;;;;;;;7.10;4.43;;;;;;;21.95;65.57;99781.69;4993479;28;20073;-62
2022/08/05 04:11:20;;;;;;;10.35;4.85;;;;;;;21.96;65.61;99783.41;4993836;28;20046;-62
2022/08/05 04:14:05;;;;;;;8.77;4.72;;;;;;;21.96;65.83;99783.41;4993408;28;20056;-62
2022/08/05 04:16:50;;;;;;;6.68;4.45;;;;;;;21.95;65.67;99790.47;4994633;28;20109;-62
2022/08/05 04:19:42;;;;;;;7.70;4.43;;;;;;;21.96;65.45;99796.59;4993692;28;20049;-62
2022/08/05 04:22:26;;;;;;;8.73;5.22;;;;;;;21.95;65.75;99790.47;4993502;28;20566;-61
2022/08/05 04:25:14;;;;;;;8.40;5.07;;;;;;;21.96;65.51;99805.34;4994449;28;20057;-61
2022/08/05 04:27:58;;;;;;;6.97;4.57;;;;;;;21.97;65.64;99816.78;4994241;28;20401;-61
2022/08/05 04:30:45;;;;;;;5.95;4.60;;;;;;;21.96;65.75;99807.16;4994143;28;20084;-61
2022/08/05 04:33:29;;;;;;;7.90;5.32;;;;;;;21.96;65.66;99812.44;4993392;28;20093;-61
2022/08/05 04:36:14;;;;;;;10.80;4.45;;;;;;;21.92;65.73;99818.72;4994316;28;20069;-61
2022/08/05 04:39:06;;;;;;;7.18;4.85;;;;;;;21.89;65.85;99836.38;4993472;28;20610;-60
2022/08/05 04:41:50;;;;;;;7.03;5.78;;;;;;;21.86;65.67;99836.50;4993592;28;20501;-61
2022/08/05 04:44:34;;;;;;;8.23;5.00;;;;;;;21.89;65.72;99822.34;4994174;28;20049;-61
2022/08/05 04:47:19;;;;;;;6.32;4.65;;;;;;;21.88;65.60;99813.53;4993957;28;20057;-61
2022/08/05 04:50:08;;;;;;;;;;;;;;;21.86;65.65;99825.06;4993967;28;20041;-61
2022/08/05 04:52:55;;;;;;;8.43;5.03;;;;;;;21.84;65.61;99817.22;4993280;28;20395;-60
2022/08/05 04:55:40;;;;;;;11.88;5.13;;;;;;;21.84;65.82;99814.59;4993307;28;20049;-61
2022/08/05 04:58:24;;;;;;;8.43;5.00;;;;;;;21.84;65.77;99824.25;4994136;28;20541;-60
2022/08/05 05:01:11;;;;;;;7.28;5.07;;;;;;;21.81;65.91;99822.59;4994197;28;20165;-61
2022/08/05 05:04:00;;;;;;;5.20;4.05;;;;;;;21.81;65.85;99825.22;4994157;28;20065;-60
2022/08/05 05:06:44;;;;;;;8.20;4.63;;;;;;;21.81;65.89;99817.31;4993132;28;20097;-60
2022/08/05 05:09:28;;;;;;;8.60;6.05;;;;;;;21.78;65.87;99813.94;4993852;28;20049;-61
2022/08/05 05:12:18;;;;;;;8.38;5.40;;;;;;;21.77;65.95;99810.41;4993091;28;20105;-61
2022/08/05 05:15:05;;;;;;;8.43;4.97;;;;;;;21.78;65.94;99808.66;4992988;28;20053;-60
2022/08/05 05:17:49;;;;;;;9.45;5.88;;;;;;;21.79;65.90;99807.75;4996633;28;20057;-61
2022/08/05 05:20:32;;;;;;;10.35;5.40;;;;;;;21.77;65.80;99813.06;4997625;28;20058;-61
2022/08/05 05:23:25;;;;;;;12.38;6.63;;;;;;;21.79;65.90;99815.66;4997956;28;20414;-61
2022/08/05 05:26:12;;;;;;;9.15;5.65;;;;;;;21.81;65.87;99813.81;4997516;28;20069;-61
2022/08/05 05:29:02;;;;;;;11.45;5.28;;;;;;;21.82;65.70;99807.63;4997535;28;20142;-61
2022/08/05 05:31:55;;;;;;;6.90;5.45;;;;;;;21.81;65.83;99812.03;4996735;28;20049;-61
2022/08/05 05:34:42;;;;;;;9.38;5.75;;;;;;;21.80;65.96;99815.59;4997424;28;20108;-61
2022/08/05 05:37:29;;;;;;;9.93;5.88;;;;;;;21.79;65.82;99815.66;4997391;28;20049;-61
2022/08/05 05:40:15;;;;;;;11.40;5.95;;;;;;;21.79;66.15;99820.94;4997171;28;20057;-63
2022/08/05 05:43:04;;;;;;;8.18;5.13;;;;;;;21.76;65.96;99821.88;4996561;28;20053;-61
2022/08/05 05:45:48;;;;;;;7.47;5.47;;;;;;;21.76;66.02;99832.44;4997196;28;20099;-61
2022/08/05 05:48:33;;;;;;;11.93;6.05;;;;;;;21.77;66.06;99838.59;4996997;28;20137;-61
2022/08/05 05:51:30;;;;;;;10.25;6.50;;;;;;;21.74;65.95;99834.25;4997352;28;20057;-60
2022/08/05 05:54:17;;;;;;;11.20;6.50;;;;;;;21.75;65.95;99843.88;4996331;28;20048;-61
2022/08/05 05:57:04;;;;;;;10.40;6.35;;;;;;;21.75;66.07;99842.13;4996998;28;20057;-60
2022/08/05 05:59:54;;;;;;;14.02;7.18;;;;;;;21.74;66.03;99853.59;4997133;28;20080;-61
2022/08/05 06:02:42;;;;;;;11.15;5.85;;;;;;;21.74;66.16;99852.72;4995795;28;20093;-61
2022/08/05 06:05:28;;;;;;;10.68;5.97;;;;;;;21.75;66.03;99862.34;4997008;28;20073;-61
2022/08/05 06:08:18;;;;;;;10.35;6.35;;;;;;;21.74;66.10;99863.25;4996932;28;20084;-61
2022/08/05 06:11:02;;;;;;;9.18;5.18;;;;;;;21.73;66.04;99862.41;4996081;28;20049;-60
2022/08/05 06:13:46;;;;;;;;;;;;;;;21.71;66.08;99866.88;4997164;28;20409;-61
2022/08/05 06:16:30;;;;;;;8.57;5.38;;;;;;;21.71;66.21;99868.66;4996159;28;19921;-60
2022/08/05 06:19:14;;;;;;;10.52;5.45;;;;;;;21.69;66.23;99883.66;4995877;28;20061;-61
2022/08/05 06:21:58;;;;;;;10.85;6.10;;;;;;;21.69;66.32;99876.59;4996732;28;20405;-62
2022/08/05 06:24:42;;;;;;;11.60;5.45;;;;;;;21.68;66.31;99881.94;4996864;28;20045;-62
2022/08/05 06:27:31;;;;;;;9.25;5.78;;;;;;;21.67;66.20;99886.34;4996075;28;20053;-62
2022/08/05 06:30:21;;;;;;;10.32;5.80;;;;;;;21.65;66.32;99892.59;4995409;28;20121;-61
2022/08/05 06:33:08;;;;;;;7.35;5.35;;;;;;;21.65;66.30;99892.59;4995245;28;20524;-62
2022/08/05 06:35:57;;;;;;;9.50;6.45;;;;;;;21.64;66.39;99893.50;4996547;28;20045;-61
2022/08/05 06:38:45;;;;;;;8.95;5.90;;;;;;;21.64;66.44;99899.66;4996318;28;20069;-62
2022/08/05 06:41:29;;;;;;;10.43;5.40;;;;;;;21.65;66.25;99901.34;4996280;28;20061;-62
2022/08/05 06:44:15;;;;;;;10.18;5.50;;;;;;;21.65;66.53;99908.41;4996444;28;20057;-60
2022/08/05 06:47:05;;;;;;;7.85;5.97;;;;;;;21.63;66.44;99908.47;4996055;28;20461;-61
2022/08/05 06:49:52;;;;;;;11.13;5.50;;;;;;;21.62;66.54;99911.13;4995094;28;20093;-62
2022/08/05 06:52:39;;;;;;;7.47;5.20;;;;;;;21.63;66.47;99916.38;4995202;28;20100;-62
2022/08/05 06:55:29;;;;;;;8.68;5.35;;;;;;;21.62;66.51;99921.69;4996057;28;20118;-61
2022/08/05 06:58:18;;;;;;;8.13;5.60;;;;;;;21.61;66.52;99926.09;4994844;28;20100;-60
2022/08/05 07:01:04;;;;;;;6.93;5.60;;;;;;;21.57;66.59;99930.56;4995237;28;20108;-60
2022/08/05 07:03:52;;;;;;;7.50;5.72;;;;;;;21.58;66.59;99937.56;4994916;28;20054;-60
2022/08/05 07:06:41;;;;;;;7.15;5.22;;;;;;;21.58;66.56;99940.19;4995875;28;20105;-60
2022/08/05 07:09:25;;;;;;;8.27;5.15;;;;;;;21.57;66.64;99951.66;4994680;28;20077;-62
2022/08/05 07:16:48;;;;;;;9.77;5.70;;;;;;;21.55;66.53;99953.50;4994753;28;20113;-60
2022/08/05 07:18:16;;;;;;;21.25;5.78;;;;;;;21.53;66.61;99964.97;4995155;28;20088;-62
2022/08/05 07:21:03;;;;;;;8.43;5.15;;;;;;;21.51;66.75;99969.44;4995306;28;20046;-62
2022/08/05 07:23:47;;;;;;;6.63;4.65;;;;;;;21.49;66.77;99969.50;4995149;28;20113;-62
2022/08/05 07:26:31;;;;;;;6.95;4.88;;;;;;;21.50;66.42;99975.63;4995680;28;20097;-61
2022/08/05 07:29:15;;;;;;;7.10;4.85;;;;;;;21.48;66.74;99980.94;4994269;28;20053;-62
2022/08/05 07:32:02;;;;;;;5.53;4.32;;;;;;;21.48;66.63;99988.00;4995190;28;20045;-60
2022/08/05 07:34:52;;;;;;;6.03;4.35;;;;;;;21.47;66.54;99987.13;4994692;28;20084;-62
2022/08/05 07:37:37;;;;;;;9.05;4.72;;;;;;;21.46;66.59;99995.94;4994522;28;20100;-61
2022/08/05 07:40:23;;;;;;;5.85;4.50;;;;;;;21.44;66.68;100000.38;4994486;28;20056;-60
2022/08/05 07:43:09;;;;;;;5.20;3.95;;;;;;;21.41;66.66;100003.16;4994860;28;20053;-60
2022/08/05 07:45:55;;;;;;;5.35;4.30;;;;;;;21.40;66.64;100009.31;4994303;28;20053;-61
2022/08/05 07:48:44;;;;;;;5.20;4.05;;;;;;;21.38;66.76;100013.78;4994123;28;20096;-62
2022/08/05 07:51:35;;;;;;;5.75;4.00;;;;;;;21.34;66.76;100015.59;4993754;28;20073;-61
2022/08/05 07:54:20;;;;;;;6.55;4.25;;;;;;;21.34;66.67;100017.41;4995025;28;20053;-61
2022/08/05 07:57:05;;;;;;;5.15;4.15;;;;;;;21.32;66.58;100021.84;4994864;28;20050;-61
2022/08/05 07:59:49;;;;;;;8.95;3.85;;;;;;;21.32;66.37;100019.22;4993837;28;20108;-60
2022/08/05 08:02:34;;;;;;;5.00;3.40;;;;;;;21.29;66.59;100026.28;4994339;28;20061;-60
2022/08/05 08:05:17;;;;;;;5.43;3.30;;;;;;;21.27;66.78;100035.16;4995003;28;20100;-60
2022/08/05 08:08:01;;;;;;;5.85;3.22;;;;;;;21.24;66.73;100035.25;4995284;28;20192;-61
2022/08/05 08:10:45;;;;;;;6.03;3.40;;;;;;;21.22;66.57;100034.41;4994908;28;20163;-60
2022/08/05 08:13:32;;;;;;;7.53;3.35;;;;;;;21.21;66.50;100033.56;4994500;28;20052;-62
2022/08/05 08:16:16;;;;;;;3.97;2.85;;;;;;;21.20;66.71;100031.84;4993491;28;20076;-62
2022/08/05 08:19:00;;;;;;;7.03;3.75;;;;;;;21.18;66.65;100036.28;4994804;28;20077;-60
2022/08/05 08:21:44;;;;;;;7.00;2.60;;;;;;;21.16;66.65;100040.72;4994313;28;20532;-61
2022/08/05 08:24:28;;;;;;;5.68;3.03;;;;;;;21.15;66.67;100039.00;4993691;28;20101;-60
2022/08/05 08:27:15;;;;;;;7.18;3.05;;;;;;;21.13;66.53;100044.31;4993493;28;20533;-61
2022/08/05 08:30:00;;;;;;;4.80;2.80;;;;;;;21.14;66.69;100047.81;4994295;28;20089;-61
2022/08/05 08:32:43;;;;;;;5.63;2.60;;;;;;;21.15;66.75;100054.81;4994182;28;20061;-61
2022/08/05 08:35:27;;;;;;;4.32;2.35;;;;;;;21.13;66.64;100057.50;4993566;28;20173;-62
2022/08/05 08:38:13;;;;;;;3.28;2.20;;;;;;;21.13;66.64;100061.88;4994396;28;20053;-61
2022/08/05 08:40:58;;;;;;;6.50;3.15;;;;;;;21.13;66.59;100060.13;4993449;28;20081;-60
2022/08/05 08:43:46;;;;;;;4.93;2.85;;;;;;;21.12;66.58;100061.03;4993201;28;20126;-61
2022/08/05 08:46:33;;;;;;;4.85;2.70;;;;;;;21.13;66.48;100064.53;4994445;28;20527;-60
2022/08/05 08:49:19;;;;;;;4.97;2.55;;;;;;;21.13;66.57;100069.78;4993110;28;20068;-60
2022/08/05 08:52:18;;;;;;;4.05;2.38;;;;;;;21.13;66.56;100073.31;4999893;28;20056;-60
2022/08/05 08:55:03;;;;;;;5.28;2.70;;;;;;;21.12;66.43;100081.22;4999990;28;20079;-62
2022/08/05 08:57:47;;;;;;;5.35;2.17;;;;;;;21.13;66.48;100080.31;5000545;28;20145;-60
2022/08/05 09:00:32;;;;;;;3.38;2.20;;;;;;;21.14;66.18;100082.94;4999805;28;20065;-60
2022/08/05 09:03:16;;;;;;;4.20;2.58;;;;;;;21.15;66.51;100083.78;4999301;28;20061;-60
2022/08/05 09:06:01;;;;;;;3.65;2.30;;;;;;;21.13;66.50;100089.13;5000689;28;20104;-60
2022/08/05 09:08:44;;;;;;;7.32;3.10;;;;;;;21.12;66.15;100103.19;5000172;28;20042;-62
2022/08/05 09:11:31;;;;;;;6.55;3.17;;;;;;;21.10;66.41;100097.09;5000737;28;20053;-61
2022/08/05 09:14:15;;;;;;;4.97;2.65;;;;;;;21.12;66.45;100110.22;4999293;28;20045;-62
2022/08/05 09:17:00;;;;;;;5.15;2.53;;;;;;;21.09;66.33;100110.31;5000148;28;20517;-62
2022/08/05 09:19:46;;;;;;;7.05;3.13;;;;;;;21.10;66.27;100115.53;5000368;28;20184;-62
2022/08/05 09:23:10;;;;;;;7.28;3.25;;;;;;;21.12;66.57;100118.13;4999514;28;20406;-61
2022/08/05 09:26:09;;;;;;;4.85;2.63;;;;;;;21.09;66.38;100120.88;5000161;28;20553;-61
2022/08/05 09:28:59;;;;;;;6.70;2.65;;;;;;;21.11;66.31;100121.66;5000092;28;20044;-61
2022/08/05 09:31:43;;;;;;;5.13;3.53;;;;;;;21.10;66.38;100136.63;4999283;28;20173;-61
2022/08/05 09:34:50;;;;;;;13.95;4.05;;;;;;;21.09;66.42;100131.41;4999534;28;20089;-61
2022/08/05 09:37:37;;;;;;;5.70;3.53;;;;;;;21.08;66.36;100138.41;5000129;28;20128;-61
2022/08/05 09:40:35;;;;;;;6.30;3.92;;;;;;;21.06;66.40;100144.66;4999520;28;20556;-61
2022/08/05 09:43:28;;;;;;;7.75;3.70;;;;;;;21.05;66.34;100151.66;5000284;28;20105;-61
2022/08/05 09:46:33;;;;;;;5.43;3.53;;;;;;;21.04;66.21;100146.44;4999648;28;20184;-63
2022/08/05 09:49:23;;;;;;;6.55;3.33;;;;;;;21.03;66.38;100152.63;4998882;28;20110;-62
2022/08/05 09:52:27;;;;;;;7.68;4.30;;;;;;;21.02;66.24;100154.38;4999114;28;20053;-62
2022/08/05 09:55:17;;;;;;;11.07;4.77;;;;;;;21.03;66.57;100158.75;4999765;28;20108;-62
2022/08/05 09:58:10;;;;;;;8.63;4.13;;;;;;;21.02;66.43;100164.91;5000169;28;20557;-62
2022/08/05 10:01:03;;;;;;;7.03;3.75;;;;;;;21.03;66.54;100160.53;5000469;28;20053;-62
2022/08/05 10:04:09;;;;;;;7.67;4.30;;;;;;;21.02;66.33;100166.69;4995888;28;20091;-62
2022/08/05 10:06:55;;;;;;;9.82;4.80;;;;;;;21.03;66.43;100171.91;4996102;28;20056;-61
2022/08/05 10:09:55;;;;;;;8.25;4.47;;;;;;;21.03;66.56;100166.66;4996062;28;20097;-61
2022/08/05 10:12:45;;;;;;;6.07;4.90;;;;;;;21.03;66.45;100168.44;4996903;28;20049;-61
2022/08/05 10:15:34;;;;;;;7.53;4.80;;;;;;;21.01;66.66;100176.38;4997000;28;20104;-61
2022/08/05 10:18:21;;;;;;;8.13;5.00;;;;;;;21.02;66.49;100170.19;4996659;28;20046;-61
2022/08/05 10:21:06;;;;;;;7.95;5.38;;;;;;;21.05;66.50;100170.09;4996826;28;20398;-61
2022/08/05 10:23:51;;;;;;;8.93;5.68;;;;;;;21.06;66.56;100168.34;4996544;28;20508;-61
2022/08/05 10:26:40;;;;;;;9.68;6.05;;;;;;;21.07;66.55;100172.72;4995710;28;20056;-61
2022/08/05 10:29:28;;;;;;;10.90;5.30;;;;;;;21.06;66.49;100166.56;4996424;28;20049;-61
2022/08/05 10:32:13;;;;;;;14.00;5.25;;;;;;;21.06;66.33;100171.84;4996698;28;20487;-61
2022/08/05 10:35:02;;;;;;;8.38;5.43;;;;;;;21.08;66.43;100172.69;4995432;28;20150;-61
2022/08/05 10:37:47;;;;;;;11.98;5.88;;;;;;;21.07;66.37;100173.56;4995634;28;20061;-61
2022/08/05 10:40:42;;;;;;;8.20;4.85;;;;;;;21.09;66.37;100170.91;4995502;28;20097;-61
2022/08/05 10:43:35;;;;;;;;;;;;;;;21.08;66.34;100171.81;4996787;28;20081;-63
2022/08/05 10:46:23;;;;;;;6.90;5.78;;;;;;;21.10;66.38;100172.63;4996308;28;20024;-61
2022/08/05 10:49:07;;;;;;;10.07;6.07;;;;;;;21.10;66.41;100176.13;4995644;28;20101;-61
2022/08/05 10:51:58;;;;;;;11.60;5.93;;;;;;;21.11;66.38;100177.00;4996417;28;20188;-61
2022/08/05 10:55:06;;;;;;;13.52;6.72;;;;;;;21.12;66.31;100171.69;4995387;28;20513;-60
2022/08/05 10:58:10;;;;;;;8.98;5.75;;;;;;;21.14;66.29;100177.81;4995072;28;20056;-61
2022/08/05 11:00:54;;;;;;;11.90;6.70;;;;;;;21.16;66.46;100176.91;4995055;28;20113;-61
2022/08/05 11:04:03;;;;;;;9.13;6.07;;;;;;;21.20;66.29;100178.53;4996334;28;20140;-61
2022/08/05 11:06:57;;;;;;;8.95;6.80;;;;;;;21.20;66.23;100168.88;4995910;28;20101;-61
2022/08/05 11:09:48;;;;;;;10.43;6.68;;;;;;;21.21;66.25;100181.13;4995437;28;20045;-61
2022/08/05 11:12:42;;;;;;;13.10;6.43;;;;;;;21.23;66.21;100176.69;4994789;28;20101;-62
2022/08/05 11:15:42;;;;;;;11.10;7.18;;;;;;;21.23;66.17;100189.88;4994226;28;20046;-60
2022/08/05 11:18:32;;;;;;;12.18;6.70;;;;;;;21.24;66.12;100181.06;4995387;28;20045;-61
2022/08/05 11:21:32;;;;;;;13.30;6.80;;;;;;;21.26;66.15;100173.09;4994783;28;20053;-61
2022/08/05 11:24:20;;;;;;;14.07;6.88;;;;;;;21.28;66.08;100182.69;4995399;28;20061;-63
2022/08/05 11:27:30;;;;;;;9.18;7.00;;;;;;;21.30;66.08;100183.53;4994691;28;20406;-60
2022/08/05 11:30:17;;;;;;;11.55;6.55;;;;;;;21.30;66.08;100180.88;4995239;28;20568;-61
2022/08/05 11:33:29;;;;;;;10.13;5.85;;;;;;;21.30;66.12;100186.16;4995349;28;20085;-62
2022/08/05 11:36:18;;;;;;;9.40;6.72;;;;;;;21.32;66.09;100186.13;4995308;28;20049;-61
2022/08/05 11:39:03;;;;;;;11.85;6.63;;;;;;;21.35;65.92;100193.09;4994390;28;20105;-62
2022/08/05 11:41:51;;;;;;;9.25;6.20;;;;;;;21.32;65.89;100194.03;4994361;28;20082;-62
2022/08/05 11:44:37;;;;;;;10.05;6.15;;;;;;;21.31;66.03;100197.59;4994343;28;20194;-62
2022/08/05 11:47:25;;;;;;;8.50;6.30;;;;;;;21.32;65.84;100195.78;4994223;28;20081;-62
2022/08/05 11:50:09;;;;;;;10.95;6.85;;;;;;;21.31;65.83;100192.31;4994976;28;20044;-62
2022/08/05 11:52:53;;;;;;;13.25;7.05;;;;;;;21.31;65.81;100197.59;4994900;28;20591;-62
2022/08/05 11:55:52;;;;;;;9.93;6.35;;;;;;;21.32;65.69;100190.53;4994819;28;20044;-62
2022/08/05 11:58:41;;;;;;;14.02;6.65;;;;;;;21.34;65.69;100189.56;4994856;28;20150;-62
2022/08/05 12:01:25;;;;;;;8.30;6.47;;;;;;;21.38;65.66;100193.00;4993746;28;20053;-61
2022/08/05 12:04:09;;;;;;;14.85;6.40;;;;;;;21.39;65.53;100203.50;4993941;28;20053;-61
2022/08/05 12:06:53;;;;;;;12.70;7.05;;;;;;;21.41;65.52;100198.22;4994862;28;20065;-61
2022/08/05 12:09:40;;;;;;;9.63;5.97;;;;;;;21.39;65.60;100197.38;4993657;28;20044;-62
2022/08/05 12:12:28;;;;;;;13.60;6.72;;;;;;;21.41;65.56;100204.34;4994546;28;20532;-61
2022/08/05 12:15:19;;;;;;;8.05;5.57;;;;;;;21.40;65.42;100204.38;4994598;28;20092;-62
2022/08/05 12:18:03;;;;;;;11.23;6.43;;;;;;;21.37;65.50;100213.22;4994734;28;20138;-61
2022/08/05 12:20:50;;;;;;;8.60;5.72;;;;;;;21.38;65.41;100222.00;4994719;28;20536;-63
2022/08/05 12:23:36;;;;;;;10.27;5.47;;;;;;;21.36;65.38;100226.44;4994103;28;20104;-62
2022/08/05 12:26:20;;;;;;;11.95;5.28;;;;;;;21.34;65.27;100221.19;4994201;28;20096;-61
2022/08/05 12:29:09;;;;;;;10.57;4.97;;;;;;;21.33;65.31;100226.53;4994229;28;20057;-61
2022/08/05 12:31:58;;;;;;;10.32;4.97;;;;;;;21.30;65.08;100238.88;4993950;28;20072;-62
2022/08/05 12:34:43;;;;;;;7.07;4.47;;;;;;;21.32;65.23;100237.97;4993564;28;20045;-61
2022/08/05 12:37:27;;;;;;;6.25;4.60;;;;;;;21.32;65.29;100241.50;4994226;28;20041;-62
2022/08/05 12:40:14;;;;;;;7.82;4.90;;;;;;;21.33;65.33;100243.22;4993050;28;20089;-62
2022/08/05 12:42:58;;;;;;;6.78;4.32;;;;;;;21.35;65.14;100249.28;4993455;28;20077;-62
2022/08/05 12:45:55;;;;;;;6.90;3.20;;;;;;;21.34;65.09;100251.97;4994368;28;20529;-63
2022/08/05 12:48:39;;;;;;;5.72;3.95;;;;;;;21.33;64.93;100250.25;4993123;28;20045;-62
2022/08/05 12:51:26;;;;;;;6.65;3.15;;;;;;;21.33;64.91;100248.50;4994429;28;20410;-61
2022/08/05 12:54:12;;;;;;;5.47;3.50;;;;;;;21.34;64.94;100249.34;4993237;28;20459;-61
2022/08/05 12:57:03;;;;;;;6.53;3.10;;;;;;;21.35;64.85;100251.06;4993384;28;20462;-61
2022/08/05 12:59:51;;;;;;;4.82;2.97;;;;;;;21.36;64.86;100253.66;4994058;28;20430;-61
2022/08/05 13:02:35;;;;;;;7.38;3.25;;;;;;;21.38;64.47;100261.56;4994036;28;20112;-61
2022/08/05 13:05:21;;;;;;;4.93;3.10;;;;;;;21.38;64.73;100257.13;4993069;28;20126;-62
2022/08/05 13:08:05;;;;;;;4.75;2.83;;;;;;;21.38;64.40;100258.91;4994075;28;20197;-61
2022/08/05 13:10:49;;;;;;;4.15;2.50;;;;;;;21.36;64.39;100269.47;4993098;28;20092;-63